sensor_id;sensor_type;location;lat;lon;timestamp;temperature;humidity
2893;DHT22;1456;51.840;12.184;2023-05-29T00:01:04;14.70;99.90
2893;DHT22;1456;51.840;12.184;2023-05-29T00:03:32;14.60;99.90
2893;DHT22;1456;51.840;12.184;2023-05-29T00:06:13;14.50;99.90
2893;DHT22;1456;51.840;12.184;2023-05-29T00:08:46;14.50;99.90
2893;DHT22;1456;51.840;12.184;2023-05-29T00:11:13;14.40;99.90
2893;DHT22;1456;51.840;12.184;2023-05-29T00:13:45;14.40;99.90
2893;DHT22;1456;51.840;12.184;2023-05-29T00:16:14;14.30;99.90
2893;DHT22;1456;51.840;12.184;2023-05-29T00:18:42;14.10;99.90
2893;DHT22;1456;51.840;12.184;2023-05-29T00:21:13;14.10;99.90
2893;DHT22;1456;51.840;12.184;2023-05-29T00:23:47;14.10;99.90
2893;DHT22;1456;51.840;12.184;2023-05-29T00:26:15;14.10;99.90
2893;DHT22;1456;51.840;12.184;2023-05-29T00:28:42;14.00;99.90
2893;DHT22;1456;51.840;12.184;2023-05-29T00:31:16;14.00;99.90
2893;DHT22;1456;51.840;12.184;2023-05-29T00:33:51;13.90;99.90
2893;DHT22;1456;51.840;12.184;2023-05-29T00:36:17;13.90;99.90
2893;DHT22;1456;51.840;12.184;2023-05-29T00:38:49;13.80;99.90
2893;DHT22;1456;51.840;12.184;2023-05-29T00:41:20;13.80;99.90
2893;DHT22;1456;51.840;12.184;2023-05-29T00:43:46;13.70;99.90
2893;DHT22;1456;51.840;12.184;2023-05-29T00:46:13;13.70;99.90
2893;DHT22;1456;51.840;12.184;2023-05-29T00:48:41;13.70;99.90
2893;DHT22;1456;51.840;12.184;2023-05-29T00:51:11;13.70;99.90
2893;DHT22;1456;51.840;12.184;2023-05-29T00:53:40;13.60;99.90
2893;DHT22;1456;51.840;12.184;2023-05-29T00:56:11;13.60;99.90
2893;DHT22;1456;51.840;12.184;2023-05-29T00:58:43;13.60;99.90
2893;DHT22;1456;51.840;12.184;2023-05-29T01:01:10;13.60;99.90
2893;DHT22;1456;51.840;12.184;2023-05-29T01:03:37;13.60;99.90
2893;DHT22;1456;51.840;12.184;2023-05-29T01:06:03;13.60;99.90
2893;DHT22;1456;51.840;12.184;2023-05-29T01:08:30;13.60;99.90
2893;DHT22;1456;51.840;12.184;2023-05-29T01:13:53;13.60;99.90
2893;DHT22;1456;51.840;12.184;2023-05-29T01:16:27;13.60;99.90
2893;DHT22;1456;51.840;12.184;2023-05-29T01:19:16;13.50;99.90
2893;DHT22;1456;51.840;12.184;2023-05-29T01:22:10;13.50;99.90
2893;DHT22;1456;51.840;12.184;2023-05-29T01:28:11;13.30;99.90
2893;DHT22;1456;51.840;12.184;2023-05-29T01:30:49;13.20;99.90
2893;DHT22;1456;51.840;12.184;2023-05-29T01:33:51;13.00;99.90
2893;DHT22;1456;51.840;12.184;2023-05-29T01:36:19;12.90;99.90
2893;DHT22;1456;51.840;12.184;2023-05-29T01:38:57;12.90;99.90
2893;DHT22;1456;51.840;12.184;2023-05-29T01:41:41;12.80;99.90
2893;DHT22;1456;51.840;12.184;2023-05-29T01:44:15;12.70;99.90
2893;DHT22;1456;51.840;12.184;2023-05-29T01:46:53;12.60;99.90
2893;DHT22;1456;51.840;12.184;2023-05-29T01:49:24;12.50;99.90
2893;DHT22;1456;51.840;12.184;2023-05-29T01:52:15;12.50;99.90
2893;DHT22;1456;51.840;12.184;2023-05-29T01:54:47;12.50;99.90
2893;DHT22;1456;51.840;12.184;2023-05-29T01:57:13;12.60;99.90
2893;DHT22;1456;51.840;12.184;2023-05-29T01:59:39;12.60;99.90
2893;DHT22;1456;51.840;12.184;2023-05-29T02:02:08;12.70;99.90
2893;DHT22;1456;51.840;12.184;2023-05-29T02:04:38;12.80;99.90
2893;DHT22;1456;51.840;12.184;2023-05-29T02:07:04;12.80;99.90
2893;DHT22;1456;51.840;12.184;2023-05-29T02:09:33;12.70;99.90
2893;DHT22;1456;51.840;12.184;2023-05-29T02:12:01;12.60;99.90
2893;DHT22;1456;51.840;12.184;2023-05-29T02:14:27;12.60;99.90
2893;DHT22;1456;51.840;12.184;2023-05-29T02:17:03;12.60;99.90
2893;DHT22;1456;51.840;12.184;2023-05-29T02:19:29;12.60;99.90
2893;DHT22;1456;51.840;12.184;2023-05-29T02:21:56;12.60;99.90
2893;DHT22;1456;51.840;12.184;2023-05-29T02:24:24;12.50;99.90
2893;DHT22;1456;51.840;12.184;2023-05-29T02:26:57;12.50;99.90
2893;DHT22;1456;51.840;12.184;2023-05-29T02:29:39;12.50;99.90
2893;DHT22;1456;51.840;12.184;2023-05-29T02:32:12;12.40;99.90
2893;DHT22;1456;51.840;12.184;2023-05-29T02:34:38;12.40;99.90
2893;DHT22;1456;51.840;12.184;2023-05-29T02:37:10;12.40;99.90
2893;DHT22;1456;51.840;12.184;2023-05-29T02:39:36;12.50;99.90
2893;DHT22;1456;51.840;12.184;2023-05-29T02:42:05;12.50;99.90
2893;DHT22;1456;51.840;12.184;2023-05-29T02:44:40;12.50;99.90
2893;DHT22;1456;51.840;12.184;2023-05-29T02:47:08;12.50;99.90
2893;DHT22;1456;51.840;12.184;2023-05-29T02:49:36;12.50;99.90
2893;DHT22;1456;51.840;12.184;2023-05-29T02:52:03;12.50;99.90
2893;DHT22;1456;51.840;12.184;2023-05-29T02:54:29;12.60;99.90
2893;DHT22;1456;51.840;12.184;2023-05-29T02:56:55;12.60;99.90
2893;DHT22;1456;51.840;12.184;2023-05-29T02:59:22;12.60;99.90
2893;DHT22;1456;51.840;12.184;2023-05-29T03:01:49;12.60;99.90
2893;DHT22;1456;51.840;12.184;2023-05-29T03:04:19;12.60;99.90
2893;DHT22;1456;51.840;12.184;2023-05-29T03:06:46;12.60;99.90
2893;DHT22;1456;51.840;12.184;2023-05-29T03:09:12;12.60;99.90
2893;DHT22;1456;51.840;12.184;2023-05-29T03:11:39;12.60;99.90
2893;DHT22;1456;51.840;12.184;2023-05-29T03:14:06;12.50;99.90
2893;DHT22;1456;51.840;12.184;2023-05-29T03:16:33;12.50;99.90
2893;DHT22;1456;51.840;12.184;2023-05-29T03:19:01;12.40;99.90
2893;DHT22;1456;51.840;12.184;2023-05-29T03:21:27;12.40;99.90
2893;DHT22;1456;51.840;12.184;2023-05-29T03:23:52;12.30;99.90
2893;DHT22;1456;51.840;12.184;2023-05-29T03:26:20;12.20;99.90
2893;DHT22;1456;51.840;12.184;2023-05-29T03:28:47;12.20;99.90
2893;DHT22;1456;51.840;12.184;2023-05-29T03:31:13;12.10;99.90
2893;DHT22;1456;51.840;12.184;2023-05-29T03:33:41;12.00;99.90
2893;DHT22;1456;51.840;12.184;2023-05-29T03:36:10;11.90;99.90
2893;DHT22;1456;51.840;12.184;2023-05-29T03:38:37;11.80;99.90
2893;DHT22;1456;51.840;12.184;2023-05-29T03:41:08;11.80;99.90
2893;DHT22;1456;51.840;12.184;2023-05-29T03:43:38;11.80;99.90
2893;DHT22;1456;51.840;12.184;2023-05-29T03:46:05;11.70;99.90
2893;DHT22;1456;51.840;12.184;2023-05-29T03:48:37;11.70;99.90
2893;DHT22;1456;51.840;12.184;2023-05-29T03:51:13;11.50;99.90
2893;DHT22;1456;51.840;12.184;2023-05-29T03:53:40;11.70;99.90
2893;DHT22;1456;51.840;12.184;2023-05-29T03:56:07;11.70;99.90
2893;DHT22;1456;51.840;12.184;2023-05-29T03:58:34;11.70;99.90
2893;DHT22;1456;51.840;12.184;2023-05-29T04:01:01;11.70;99.90
2893;DHT22;1456;51.840;12.184;2023-05-29T04:03:46;11.80;99.90
2893;DHT22;1456;51.840;12.184;2023-05-29T04:06:11;11.90;99.90
2893;DHT22;1456;51.840;12.184;2023-05-29T04:08:38;11.90;99.90
2893;DHT22;1456;51.840;12.184;2023-05-29T04:11:04;11.90;99.90
2893;DHT22;1456;51.840;12.184;2023-05-29T04:13:36;11.90;99.90
2893;DHT22;1456;51.840;12.184;2023-05-29T04:16:02;11.90;99.90
2893;DHT22;1456;51.840;12.184;2023-05-29T04:18:28;12.00;99.90
2893;DHT22;1456;51.840;12.184;2023-05-29T04:20:54;12.00;99.90
2893;DHT22;1456;51.840;12.184;2023-05-29T04:23:21;12.10;99.90
2893;DHT22;1456;51.840;12.184;2023-05-29T04:25:48;12.10;99.90
2893;DHT22;1456;51.840;12.184;2023-05-29T04:28:17;12.10;99.90
2893;DHT22;1456;51.840;12.184;2023-05-29T04:30:48;12.20;99.90
2893;DHT22;1456;51.840;12.184;2023-05-29T04:33:22;12.30;99.90
2893;DHT22;1456;51.840;12.184;2023-05-29T04:35:58;12.40;99.90
2893;DHT22;1456;51.840;12.184;2023-05-29T04:38:28;12.50;99.90
2893;DHT22;1456;51.840;12.184;2023-05-29T04:40:56;12.50;99.90
2893;DHT22;1456;51.840;12.184;2023-05-29T04:43:25;12.60;99.90
2893;DHT22;1456;51.840;12.184;2023-05-29T04:46:01;12.70;99.90
2893;DHT22;1456;51.840;12.184;2023-05-29T04:48:27;12.80;99.90
2893;DHT22;1456;51.840;12.184;2023-05-29T04:50:55;13.00;99.90
2893;DHT22;1456;51.840;12.184;2023-05-29T04:53:24;13.10;99.90
2893;DHT22;1456;51.840;12.184;2023-05-29T04:55:53;13.20;99.90
2893;DHT22;1456;51.840;12.184;2023-05-29T04:58:26;13.30;99.90
2893;DHT22;1456;51.840;12.184;2023-05-29T05:00:56;13.40;99.90
2893;DHT22;1456;51.840;12.184;2023-05-29T05:03:26;13.60;99.90
2893;DHT22;1456;51.840;12.184;2023-05-29T05:05:54;13.70;99.90
2893;DHT22;1456;51.840;12.184;2023-05-29T05:08:26;13.90;99.90
2893;DHT22;1456;51.840;12.184;2023-05-29T05:10:53;14.00;99.90
2893;DHT22;1456;51.840;12.184;2023-05-29T05:13:19;14.10;99.90
2893;DHT22;1456;51.840;12.184;2023-05-29T05:15:45;14.20;99.90
2893;DHT22;1456;51.840;12.184;2023-05-29T05:18:13;14.30;99.90
2893;DHT22;1456;51.840;12.184;2023-05-29T05:20:40;14.40;99.90
2893;DHT22;1456;51.840;12.184;2023-05-29T05:23:09;14.40;99.90
2893;DHT22;1456;51.840;12.184;2023-05-29T05:25:38;14.60;99.90
2893;DHT22;1456;51.840;12.184;2023-05-29T05:28:04;14.60;99.90
2893;DHT22;1456;51.840;12.184;2023-05-29T05:30:37;14.70;99.90
2893;DHT22;1456;51.840;12.184;2023-05-29T05:33:05;14.90;99.90
2893;DHT22;1456;51.840;12.184;2023-05-29T05:35:30;15.00;99.90
2893;DHT22;1456;51.840;12.184;2023-05-29T05:38:03;15.10;99.90
2893;DHT22;1456;51.840;12.184;2023-05-29T05:40:31;15.20;99.90
2893;DHT22;1456;51.840;12.184;2023-05-29T05:43:08;15.30;99.90
2893;DHT22;1456;51.840;12.184;2023-05-29T05:45:43;15.50;99.90
2893;DHT22;1456;51.840;12.184;2023-05-29T05:48:12;15.60;99.90
2893;DHT22;1456;51.840;12.184;2023-05-29T05:50:45;15.70;99.90
2893;DHT22;1456;51.840;12.184;2023-05-29T05:53:22;15.80;99.90
2893;DHT22;1456;51.840;12.184;2023-05-29T05:55:48;15.80;99.90
2893;DHT22;1456;51.840;12.184;2023-05-29T05:58:20;15.80;99.90
2893;DHT22;1456;51.840;12.184;2023-05-29T06:00:49;15.90;99.90
2893;DHT22;1456;51.840;12.184;2023-05-29T06:03:21;16.00;99.90
2893;DHT22;1456;51.840;12.184;2023-05-29T06:05:56;16.10;99.90
2893;DHT22;1456;51.840;12.184;2023-05-29T06:08:22;16.30;99.90
2893;DHT22;1456;51.840;12.184;2023-05-29T06:10:49;16.60;99.90
2893;DHT22;1456;51.840;12.184;2023-05-29T06:13:15;16.80;99.90
2893;DHT22;1456;51.840;12.184;2023-05-29T06:15:42;17.00;98.90
2893;DHT22;1456;51.840;12.184;2023-05-29T06:18:11;17.10;99.30
2893;DHT22;1456;51.840;12.184;2023-05-29T06:20:40;17.10;97.30
2893;DHT22;1456;51.840;12.184;2023-05-29T06:23:07;17.20;98.60
2893;DHT22;1456;51.840;12.184;2023-05-29T06:25:35;17.40;97.80
2893;DHT22;1456;51.840;12.184;2023-05-29T06:28:01;17.70;98.60
2893;DHT22;1456;51.840;12.184;2023-05-29T06:30:39;17.90;97.30
2893;DHT22;1456;51.840;12.184;2023-05-29T06:33:12;18.10;96.80
2893;DHT22;1456;51.840;12.184;2023-05-29T06:35:39;18.30;96.40
2893;DHT22;1456;51.840;12.184;2023-05-29T06:38:06;18.70;96.30
2893;DHT22;1456;51.840;12.184;2023-05-29T06:40:32;19.10;95.70
2893;DHT22;1456;51.840;12.184;2023-05-29T06:43:04;19.30;94.10
2893;DHT22;1456;51.840;12.184;2023-05-29T06:45:31;19.50;93.40
2893;DHT22;1456;51.840;12.184;2023-05-29T06:48:04;19.60;93.80
2893;DHT22;1456;51.840;12.184;2023-05-29T06:50:33;19.80;93.10
2893;DHT22;1456;51.840;12.184;2023-05-29T06:53:03;20.00;93.10
2893;DHT22;1456;51.840;12.184;2023-05-29T06:55:29;20.00;91.90
2893;DHT22;1456;51.840;12.184;2023-05-29T06:58:13;20.10;92.30
2893;DHT22;1456;51.840;12.184;2023-05-29T07:00:39;20.20;92.70
2893;DHT22;1456;51.840;12.184;2023-05-29T07:03:04;20.40;91.50
2893;DHT22;1456;51.840;12.184;2023-05-29T07:05:31;20.60;91.30
2893;DHT22;1456;51.840;12.184;2023-05-29T07:07:56;20.90;92.70
2893;DHT22;1456;51.840;12.184;2023-05-29T07:10:25;21.10;91.00
2893;DHT22;1456;51.840;12.184;2023-05-29T07:12:52;21.40;91.00
2893;DHT22;1456;51.840;12.184;2023-05-29T07:15:23;21.30;89.70
2893;DHT22;1456;51.840;12.184;2023-05-29T07:17:56;21.20;91.10
2893;DHT22;1456;51.840;12.184;2023-05-29T07:20:21;21.40;90.70
2893;DHT22;1456;51.840;12.184;2023-05-29T07:22:48;21.50;91.40
2893;DHT22;1456;51.840;12.184;2023-05-29T07:25:19;21.50;91.30
2893;DHT22;1456;51.840;12.184;2023-05-29T07:27:45;21.30;91.20
2893;DHT22;1456;51.840;12.184;2023-05-29T07:30:20;21.10;91.80
2893;DHT22;1456;51.840;12.184;2023-05-29T07:32:47;20.90;91.40
2893;DHT22;1456;51.840;12.184;2023-05-29T07:35:13;20.80;91.10
2893;DHT22;1456;51.840;12.184;2023-05-29T07:37:39;20.70;92.00
2893;DHT22;1456;51.840;12.184;2023-05-29T07:40:13;20.60;91.20
2893;DHT22;1456;51.840;12.184;2023-05-29T07:42:40;20.50;91.40
2893;DHT22;1456;51.840;12.184;2023-05-29T07:45:09;20.60;91.60
2893;DHT22;1456;51.840;12.184;2023-05-29T07:50:34;20.70;92.20
2893;DHT22;1456;51.840;12.184;2023-05-29T07:53:02;20.90;90.70
2893;DHT22;1456;51.840;12.184;2023-05-29T07:55:38;21.00;91.10
2893;DHT22;1456;51.840;12.184;2023-05-29T07:58:05;21.00;91.20
2893;DHT22;1456;51.840;12.184;2023-05-29T08:00:30;21.10;90.00
2893;DHT22;1456;51.840;12.184;2023-05-29T08:03:14;21.30;91.00
2893;DHT22;1456;51.840;12.184;2023-05-29T08:05:46;21.50;90.40
2893;DHT22;1456;51.840;12.184;2023-05-29T08:08:13;21.60;87.90
2893;DHT22;1456;51.840;12.184;2023-05-29T08:10:41;21.80;89.00
2893;DHT22;1456;51.840;12.184;2023-05-29T08:13:07;22.00;88.90
2893;DHT22;1456;51.840;12.184;2023-05-29T08:15:33;22.20;90.20
2893;DHT22;1456;51.840;12.184;2023-05-29T08:18:01;22.50;91.40
2893;DHT22;1456;51.840;12.184;2023-05-29T08:20:28;22.60;84.70
2893;DHT22;1456;51.840;12.184;2023-05-29T08:22:54;22.50;84.30
2893;DHT22;1456;51.840;12.184;2023-05-29T08:25:22;22.60;81.60
2893;DHT22;1456;51.840;12.184;2023-05-29T08:27:52;22.50;81.30
2893;DHT22;1456;51.840;12.184;2023-05-29T08:30:19;22.70;83.60
2893;DHT22;1456;51.840;12.184;2023-05-29T08:32:46;22.90;81.50
2893;DHT22;1456;51.840;12.184;2023-05-29T08:35:14;23.10;83.00
2893;DHT22;1456;51.840;12.184;2023-05-29T08:37:41;23.20;82.30
2893;DHT22;1456;51.840;12.184;2023-05-29T08:40:14;23.50;82.30
2893;DHT22;1456;51.840;12.184;2023-05-29T08:43:04;23.50;78.70
2893;DHT22;1456;51.840;12.184;2023-05-29T08:45:33;23.70;82.30
2893;DHT22;1456;51.840;12.184;2023-05-29T08:48:02;24.00;84.70
2893;DHT22;1456;51.840;12.184;2023-05-29T08:50:30;24.20;77.50
2893;DHT22;1456;51.840;12.184;2023-05-29T08:53:10;24.00;76.60
2893;DHT22;1456;51.840;12.184;2023-05-29T08:55:36;23.70;77.00
2893;DHT22;1456;51.840;12.184;2023-05-29T08:58:03;23.90;79.70
2893;DHT22;1456;51.840;12.184;2023-05-29T09:00:31;24.20;74.80
2893;DHT22;1456;51.840;12.184;2023-05-29T09:02:58;24.20;75.30
2893;DHT22;1456;51.840;12.184;2023-05-29T09:05:30;24.40;78.70
2893;DHT22;1456;51.840;12.184;2023-05-29T09:08:00;24.70;78.70
2893;DHT22;1456;51.840;12.184;2023-05-29T09:10:26;25.00;73.70
2893;DHT22;1456;51.840;12.184;2023-05-29T09:12:52;25.20;74.80
2893;DHT22;1456;51.840;12.184;2023-05-29T09:15:23;25.30;75.20
2893;DHT22;1456;51.840;12.184;2023-05-29T09:17:57;25.30;70.70
2893;DHT22;1456;51.840;12.184;2023-05-29T09:20:24;25.40;69.70
2893;DHT22;1456;51.840;12.184;2023-05-29T09:23:03;25.40;74.70
2893;DHT22;1456;51.840;12.184;2023-05-29T09:25:55;25.40;69.40
2893;DHT22;1456;51.840;12.184;2023-05-29T09:28:30;25.40;72.40
2893;DHT22;1456;51.840;12.184;2023-05-29T09:30:56;25.70;71.00
2893;DHT22;1456;51.840;12.184;2023-05-29T09:33:25;25.60;68.60
2893;DHT22;1456;51.840;12.184;2023-05-29T09:36:00;25.70;68.60
2893;DHT22;1456;51.840;12.184;2023-05-29T09:38:32;26.00;67.50
2893;DHT22;1456;51.840;12.184;2023-05-29T09:41:05;26.30;68.70
2893;DHT22;1456;51.840;12.184;2023-05-29T09:43:31;26.50;69.50
2893;DHT22;1456;51.840;12.184;2023-05-29T09:46:15;26.80;71.40
2893;DHT22;1456;51.840;12.184;2023-05-29T09:49:01;27.10;63.00
2893;DHT22;1456;51.840;12.184;2023-05-29T09:51:30;27.10;64.90
2893;DHT22;1456;51.840;12.184;2023-05-29T09:53:56;27.30;62.60
2893;DHT22;1456;51.840;12.184;2023-05-29T09:56:28;27.40;59.30
2893;DHT22;1456;51.840;12.184;2023-05-29T09:58:56;27.40;60.60
2893;DHT22;1456;51.840;12.184;2023-05-29T10:01:34;27.80;60.00
2893;DHT22;1456;51.840;12.184;2023-05-29T10:04:10;28.20;57.20
2893;DHT22;1456;51.840;12.184;2023-05-29T10:06:44;28.20;56.90
2893;DHT22;1456;51.840;12.184;2023-05-29T10:09:34;28.20;57.70
2893;DHT22;1456;51.840;12.184;2023-05-29T10:12:03;28.20;57.60
2893;DHT22;1456;51.840;12.184;2023-05-29T10:14:35;28.70;58.90
2893;DHT22;1456;51.840;12.184;2023-05-29T10:17:04;29.50;57.70
2893;DHT22;1456;51.840;12.184;2023-05-29T10:19:35;30.00;56.20
2893;DHT22;1456;51.840;12.184;2023-05-29T10:22:04;29.50;53.50
2893;DHT22;1456;51.840;12.184;2023-05-29T10:24:46;29.90;56.30
2893;DHT22;1456;51.840;12.184;2023-05-29T10:27:14;30.70;55.40
2893;DHT22;1456;51.840;12.184;2023-05-29T10:30:04;31.00;53.90
2893;DHT22;1456;51.840;12.184;2023-05-29T10:32:52;30.90;52.40
2893;DHT22;1456;51.840;12.184;2023-05-29T10:35:47;30.70;52.60
2893;DHT22;1456;51.840;12.184;2023-05-29T10:38:15;30.90;54.90
2893;DHT22;1456;51.840;12.184;2023-05-29T10:40:45;31.70;53.50
2893;DHT22;1456;51.840;12.184;2023-05-29T10:43:40;32.30;53.20
2893;DHT22;1456;51.840;12.184;2023-05-29T10:46:08;33.20;51.20
2893;DHT22;1456;51.840;12.184;2023-05-29T10:48:40;32.40;47.60
2893;DHT22;1456;51.840;12.184;2023-05-29T10:51:39;32.10;48.40
2893;DHT22;1456;51.840;12.184;2023-05-29T10:54:06;30.90;48.60
2893;DHT22;1456;51.840;12.184;2023-05-29T10:56:33;30.30;49.90
2893;DHT22;1456;51.840;12.184;2023-05-29T10:59:02;30.20;51.40
2893;DHT22;1456;51.840;12.184;2023-05-29T11:01:31;30.70;50.00
2893;DHT22;1456;51.840;12.184;2023-05-29T11:06:44;30.10;48.90
2893;DHT22;1456;51.840;12.184;2023-05-29T11:09:33;30.70;52.90
2893;DHT22;1456;51.840;12.184;2023-05-29T11:14:56;32.40;51.20
2893;DHT22;1456;51.840;12.184;2023-05-29T11:20:24;32.90;46.70
2893;DHT22;1456;51.840;12.184;2023-05-29T11:23:00;32.40;46.90
2893;DHT22;1456;51.840;12.184;2023-05-29T11:25:34;31.80;49.70
2893;DHT22;1456;51.840;12.184;2023-05-29T11:28:01;32.30;49.30
2893;DHT22;1456;51.840;12.184;2023-05-29T11:30:31;33.30;47.80
2893;DHT22;1456;51.840;12.184;2023-05-29T11:33:23;34.00;47.80
2893;DHT22;1456;51.840;12.184;2023-05-29T11:36:08;35.20;44.50
2893;DHT22;1456;51.840;12.184;2023-05-29T11:38:36;36.00;43.90
2893;DHT22;1456;51.840;12.184;2023-05-29T11:41:06;36.10;42.80
2893;DHT22;1456;51.840;12.184;2023-05-29T11:43:34;36.90;41.10
2893;DHT22;1456;51.840;12.184;2023-05-29T11:46:02;36.50;43.10
2893;DHT22;1456;51.840;12.184;2023-05-29T11:48:45;35.90;42.30
2893;DHT22;1456;51.840;12.184;2023-05-29T11:51:20;35.00;41.90
2893;DHT22;1456;51.840;12.184;2023-05-29T11:53:47;34.60;43.10
2893;DHT22;1456;51.840;12.184;2023-05-29T11:56:15;33.60;44.20
2893;DHT22;1456;51.840;12.184;2023-05-29T11:58:42;33.80;44.50
2893;DHT22;1456;51.840;12.184;2023-05-29T12:01:11;34.60;43.90
2893;DHT22;1456;51.840;12.184;2023-05-29T12:03:40;34.80;44.80
2893;DHT22;1456;51.840;12.184;2023-05-29T12:06:08;34.60;42.50
2893;DHT22;1456;51.840;12.184;2023-05-29T12:08:35;35.20;44.60
2893;DHT22;1456;51.840;12.184;2023-05-29T12:11:11;34.80;42.50
2893;DHT22;1456;51.840;12.184;2023-05-29T12:13:41;33.00;43.50
2893;DHT22;1456;51.840;12.184;2023-05-29T12:16:07;32.10;43.10
2893;DHT22;1456;51.840;12.184;2023-05-29T12:18:33;31.40;43.30
2893;DHT22;1456;51.840;12.184;2023-05-29T12:21:03;31.00;44.30
2893;DHT22;1456;51.840;12.184;2023-05-29T12:23:42;30.70;45.70
2893;DHT22;1456;51.840;12.184;2023-05-29T12:26:09;31.90;44.10
2893;DHT22;1456;51.840;12.184;2023-05-29T12:28:45;32.70;45.10
2893;DHT22;1456;51.840;12.184;2023-05-29T12:31:13;34.10;45.30
2893;DHT22;1456;51.840;12.184;2023-05-29T12:33:49;33.40;43.50
2893;DHT22;1456;51.840;12.184;2023-05-29T12:36:21;32.80;43.10
2893;DHT22;1456;51.840;12.184;2023-05-29T12:38:51;32.50;46.00
2893;DHT22;1456;51.840;12.184;2023-05-29T12:41:37;32.90;42.60
2893;DHT22;1456;51.840;12.184;2023-05-29T12:44:08;32.10;43.10
2893;DHT22;1456;51.840;12.184;2023-05-29T12:46:41;32.20;43.20
2893;DHT22;1456;51.840;12.184;2023-05-29T12:49:19;31.50;44.40
2893;DHT22;1456;51.840;12.184;2023-05-29T12:51:52;31.90;46.60
2893;DHT22;1456;51.840;12.184;2023-05-29T12:54:19;33.10;43.50
2893;DHT22;1456;51.840;12.184;2023-05-29T12:56:44;33.60;42.90
2893;DHT22;1456;51.840;12.184;2023-05-29T12:59:17;33.60;44.30
2893;DHT22;1456;51.840;12.184;2023-05-29T13:01:44;32.60;43.40
2893;DHT22;1456;51.840;12.184;2023-05-29T13:04:11;31.40;44.00
2893;DHT22;1456;51.840;12.184;2023-05-29T13:06:38;30.60;46.70
2893;DHT22;1456;51.840;12.184;2023-05-29T13:09:09;31.40;43.40
2893;DHT22;1456;51.840;12.184;2023-05-29T13:11:38;31.10;42.70
2893;DHT22;1456;51.840;12.184;2023-05-29T13:14:03;31.90;43.60
2893;DHT22;1456;51.840;12.184;2023-05-29T13:16:31;33.50;42.80
2893;DHT22;1456;51.840;12.184;2023-05-29T13:18:59;34.60;43.10
2893;DHT22;1456;51.840;12.184;2023-05-29T13:21:27;34.80;41.60
2893;DHT22;1456;51.840;12.184;2023-05-29T13:24:02;35.20;41.00
2893;DHT22;1456;51.840;12.184;2023-05-29T13:26:32;35.40;41.10
2893;DHT22;1456;51.840;12.184;2023-05-29T13:29:02;35.30;40.30
2893;DHT22;1456;51.840;12.184;2023-05-29T13:31:38;35.70;40.20
2893;DHT22;1456;51.840;12.184;2023-05-29T13:34:04;36.00;40.80
2893;DHT22;1456;51.840;12.184;2023-05-29T13:36:33;36.10;39.60
2893;DHT22;1456;51.840;12.184;2023-05-29T13:39:03;36.20;39.20
2893;DHT22;1456;51.840;12.184;2023-05-29T13:41:31;36.50;40.40
2893;DHT22;1456;51.840;12.184;2023-05-29T13:44:06;37.60;39.00
2893;DHT22;1456;51.840;12.184;2023-05-29T13:46:40;36.50;38.50
2893;DHT22;1456;51.840;12.184;2023-05-29T13:49:06;36.10;39.90
2893;DHT22;1456;51.840;12.184;2023-05-29T13:51:41;36.50;38.60
2893;DHT22;1456;51.840;12.184;2023-05-29T13:54:24;36.60;37.50
2893;DHT22;1456;51.840;12.184;2023-05-29T13:56:51;37.00;38.10
2893;DHT22;1456;51.840;12.184;2023-05-29T13:59:24;36.50;37.90
2893;DHT22;1456;51.840;12.184;2023-05-29T14:01:57;36.10;39.00
2893;DHT22;1456;51.840;12.184;2023-05-29T14:04:24;35.60;38.80
2893;DHT22;1456;51.840;12.184;2023-05-29T14:06:55;34.60;38.10
2893;DHT22;1456;51.840;12.184;2023-05-29T14:09:22;34.40;38.10
2893;DHT22;1456;51.840;12.184;2023-05-29T14:11:54;33.90;38.80
2893;DHT22;1456;51.840;12.184;2023-05-29T14:14:22;33.40;39.90
2893;DHT22;1456;51.840;12.184;2023-05-29T14:16:56;33.40;40.10
2893;DHT22;1456;51.840;12.184;2023-05-29T14:19:31;33.40;39.40
2893;DHT22;1456;51.840;12.184;2023-05-29T14:21:58;33.40;39.50
2893;DHT22;1456;51.840;12.184;2023-05-29T14:24:26;33.10;39.00
2893;DHT22;1456;51.840;12.184;2023-05-29T14:26:52;32.80;38.10
2893;DHT22;1456;51.840;12.184;2023-05-29T14:29:20;32.80;39.40
2893;DHT22;1456;51.840;12.184;2023-05-29T14:31:46;34.00;40.20
2893;DHT22;1456;51.840;12.184;2023-05-29T14:34:15;34.80;39.70
2893;DHT22;1456;51.840;12.184;2023-05-29T14:36:42;36.00;38.60
2893;DHT22;1456;51.840;12.184;2023-05-29T14:39:10;37.00;37.50
2893;DHT22;1456;51.840;12.184;2023-05-29T14:41:41;36.40;37.00
2893;DHT22;1456;51.840;12.184;2023-05-29T14:44:17;35.60;36.00
2893;DHT22;1456;51.840;12.184;2023-05-29T14:46:45;33.80;37.30
2893;DHT22;1456;51.840;12.184;2023-05-29T14:49:12;33.00;37.50
2893;DHT22;1456;51.840;12.184;2023-05-29T14:51:39;33.80;38.40
2893;DHT22;1456;51.840;12.184;2023-05-29T14:54:07;35.60;35.60
2893;DHT22;1456;51.840;12.184;2023-05-29T14:56:34;35.80;35.80
2893;DHT22;1456;51.840;12.184;2023-05-29T14:59:05;34.60;34.80
2893;DHT22;1456;51.840;12.184;2023-05-29T15:01:34;34.50;36.30
2893;DHT22;1456;51.840;12.184;2023-05-29T15:04:00;34.60;36.30
2893;DHT22;1456;51.840;12.184;2023-05-29T15:06:27;35.30;35.80
2893;DHT22;1456;51.840;12.184;2023-05-29T15:08:55;36.00;37.00
2893;DHT22;1456;51.840;12.184;2023-05-29T15:11:21;36.60;34.60
2893;DHT22;1456;51.840;12.184;2023-05-29T15:13:50;36.40;35.10
2893;DHT22;1456;51.840;12.184;2023-05-29T15:16:22;35.30;35.20
2893;DHT22;1456;51.840;12.184;2023-05-29T15:18:54;35.00;36.50
2893;DHT22;1456;51.840;12.184;2023-05-29T15:21:24;35.90;35.50
2893;DHT22;1456;51.840;12.184;2023-05-29T15:23:50;36.10;35.40
2893;DHT22;1456;51.840;12.184;2023-05-29T15:26:16;35.90;36.10
2893;DHT22;1456;51.840;12.184;2023-05-29T15:28:44;34.90;36.40
2893;DHT22;1456;51.840;12.184;2023-05-29T15:31:13;34.50;35.60
2893;DHT22;1456;51.840;12.184;2023-05-29T15:33:39;34.10;35.30
2893;DHT22;1456;51.840;12.184;2023-05-29T15:36:06;33.40;36.50
2893;DHT22;1456;51.840;12.184;2023-05-29T15:38:33;33.20;37.40
2893;DHT22;1456;51.840;12.184;2023-05-29T15:41:00;33.40;36.60
2893;DHT22;1456;51.840;12.184;2023-05-29T15:43:33;33.50;37.10
2893;DHT22;1456;51.840;12.184;2023-05-29T15:46:02;33.90;36.00
2893;DHT22;1456;51.840;12.184;2023-05-29T15:48:28;33.80;35.60
2893;DHT22;1456;51.840;12.184;2023-05-29T15:50:55;34.20;36.40
2893;DHT22;1456;51.840;12.184;2023-05-29T15:53:27;34.00;35.40
2893;DHT22;1456;51.840;12.184;2023-05-29T15:55:52;33.70;35.70
2893;DHT22;1456;51.840;12.184;2023-05-29T15:58:30;33.80;37.30
2893;DHT22;1456;51.840;12.184;2023-05-29T16:00:56;34.30;35.60
2893;DHT22;1456;51.840;12.184;2023-05-29T16:03:24;34.30;35.70
2893;DHT22;1456;51.840;12.184;2023-05-29T16:05:49;34.40;35.80
2893;DHT22;1456;51.840;12.184;2023-05-29T16:08:17;34.70;36.20
2893;DHT22;1456;51.840;12.184;2023-05-29T16:10:47;34.90;34.60
2893;DHT22;1456;51.840;12.184;2023-05-29T16:13:13;34.10;35.30
2893;DHT22;1456;51.840;12.184;2023-05-29T16:15:38;33.30;36.10
2893;DHT22;1456;51.840;12.184;2023-05-29T16:18:04;33.20;35.30
2893;DHT22;1456;51.840;12.184;2023-05-29T16:20:32;32.40;36.70
2893;DHT22;1456;51.840;12.184;2023-05-29T16:22:59;31.50;35.90